createdAt,value
2022-12-19T00:00:35.090Z,74.85
2022-12-19T00:03:04.630Z,77.47
2022-12-19T00:05:32.712Z,76.97
2022-12-19T00:08:03.103Z,74.93
2022-12-19T00:10:40.414Z,77.00
2022-12-19T00:13:08.551Z,77.28
2022-12-19T00:15:37.325Z,75.85
2022-12-19T00:18:06.827Z,72.25
2022-12-19T00:20:34.766Z,75.50
2022-12-19T00:23:02.781Z,74.47
2022-12-19T00:25:30.776Z,84.40
2022-12-19T00:27:59.965Z,75.05
2022-12-19T00:30:27.984Z,78.40
2022-12-19T00:32:57.437Z,77.38
2022-12-19T00:35:27.241Z,82.53
2022-12-19T00:37:55.262Z,78.10
2022-12-19T00:40:23.878Z,75.80
2022-12-19T00:42:53.769Z,72.93
2022-12-19T00:45:22.449Z,81.13
2022-12-19T00:47:50.464Z,82.63
2022-12-19T00:50:18.666Z,75.05
2022-12-19T00:52:48.054Z,78.65
2022-12-19T00:55:18.689Z,74.43
2022-12-19T00:57:48.040Z,74.75
2022-12-19T01:00:17.645Z,74.13
2022-12-19T01:02:45.774Z,75.22
2022-12-19T01:05:13.991Z,80.68
2022-12-19T01:07:42.509Z,78.07
2022-12-19T01:10:12.081Z,73.50
2022-12-19T01:12:48.292Z,67.22
2022-12-19T01:15:18.209Z,70.68
2022-12-19T01:17:46.149Z,74.82
2022-12-19T01:20:15.074Z,79.53
2022-12-19T01:22:43.139Z,69.55
2022-12-19T01:25:13.148Z,74.18
2022-12-19T01:27:41.398Z,65.32
2022-12-19T01:30:10.972Z,67.78
2022-12-19T01:32:39.514Z,68.25
2022-12-19T01:35:09.223Z,67.43
2022-12-19T01:37:43.950Z,66.43
2022-12-19T01:40:14.837Z,68.75
2022-12-19T01:42:42.779Z,63.60
2022-12-19T01:45:34.019Z,67.28
2022-12-19T01:48:12.988Z,63.90
2022-12-19T01:51:00.518Z,68.13
2022-12-19T01:53:36.210Z,63.25
2022-12-19T01:56:12.304Z,68.47
2022-12-19T01:58:46.542Z,66.35
2022-12-19T02:01:16.513Z,72.45
2022-12-19T02:03:47.086Z,65.28
2022-12-19T02:06:15.887Z,62.50
2022-12-19T02:08:47.519Z,65.35
2022-12-19T02:11:16.825Z,63.28
2022-12-19T02:16:30.266Z,66.25
2022-12-19T02:19:15.879Z,65.47
2022-12-19T02:21:56.192Z,70.50
2022-12-19T02:24:54.189Z,69.68
2022-12-19T02:27:46.948Z,74.45
2022-12-19T02:30:17.076Z,67.38
2022-12-19T02:32:57.515Z,78.20
2022-12-19T02:35:35.076Z,75.18
2022-12-19T02:38:13.377Z,70.25
2022-12-19T02:40:51.790Z,73.80
2022-12-19T02:43:28.335Z,78.93
2022-12-19T02:45:58.214Z,75.53
2022-12-19T02:48:29.276Z,75.70
2022-12-19T02:50:57.251Z,75.47
2022-12-19T02:53:26.120Z,88.93
2022-12-19T02:56:19.209Z,79.85
2022-12-19T02:58:59.485Z,79.22
2022-12-19T03:01:40.577Z,80.30
2022-12-19T03:04:18.724Z,79.88
2022-12-19T03:06:52.036Z,77.00
2022-12-19T03:09:27.649Z,74.72
2022-12-19T03:12:06.357Z,79.07
2022-12-19T03:14:36.845Z,74.97
2022-12-19T03:17:07.286Z,77.70
2022-12-19T03:19:39.699Z,75.00
2022-12-19T03:22:08.799Z,79.63
2022-12-19T03:24:36.932Z,72.40
2022-12-19T03:27:09.878Z,77.53
2022-12-19T03:29:42.172Z,84.70
2022-12-19T03:32:14.351Z,74.07
2022-12-19T03:34:48.291Z,74.45
2022-12-19T03:37:19.185Z,84.82
2022-12-19T03:39:50.083Z,82.55
2022-12-19T03:42:37.022Z,80.28
2022-12-19T03:45:07.714Z,76.35
2022-12-19T03:47:39.503Z,78.65
2022-12-19T03:50:10.561Z,89.22
2022-12-19T03:52:46.912Z,81.07
2022-12-19T03:55:20.340Z,79.65
2022-12-19T03:57:55.602Z,80.10
2022-12-19T04:00:25.224Z,75.88
2022-12-19T04:02:57.493Z,84.65
2022-12-19T04:05:29.336Z,81.05
2022-12-19T04:08:01.897Z,74.65
2022-12-19T04:10:30.936Z,72.13
2022-12-19T04:13:01.407Z,75.00
2022-12-19T04:15:41.424Z,76.32
2022-12-19T04:18:12.242Z,81.00
2022-12-19T04:20:46.204Z,74.53
2022-12-19T04:23:19.539Z,80.07
2022-12-19T04:25:52.294Z,80.47
2022-12-19T04:28:27.777Z,76.65
2022-12-19T04:30:56.065Z,77.30
2022-12-19T04:33:24.033Z,80.50
2022-12-19T04:35:53.481Z,72.93
2022-12-19T04:38:24.349Z,77.22
2022-12-19T04:40:52.311Z,70.32
2022-12-19T04:43:20.287Z,74.85
2022-12-19T04:45:52.713Z,72.68
2022-12-19T04:48:23.566Z,72.65
2022-12-19T04:50:53.133Z,79.43
2022-12-19T04:53:21.114Z,80.55
2022-12-19T04:55:49.189Z,73.60
2022-12-19T04:58:21.876Z,76.00
2022-12-19T05:00:50.264Z,76.57
2022-12-19T05:03:18.269Z,75.55
2022-12-19T05:05:46.449Z,76.80
2022-12-19T05:08:15.835Z,77.80
2022-12-19T05:13:12.097Z,79.55
2022-12-19T05:15:40.182Z,77.47
2022-12-19T05:18:08.209Z,85.10
2022-12-19T05:20:38.028Z,75.45
2022-12-19T05:23:12.078Z,78.30
2022-12-19T05:25:45.648Z,85.10
2022-12-19T05:30:41.809Z,71.88
2022-12-19T05:33:09.960Z,72.40
2022-12-19T05:35:38.494Z,79.28
2022-12-19T05:38:06.562Z,87.80
2022-12-19T05:40:34.728Z,85.63
2022-12-19T05:43:04.128Z,84.68
2022-12-19T05:48:01.477Z,80.97
2022-12-19T05:50:29.739Z,88.60
2022-12-19T05:53:09.839Z,88.72
2022-12-19T05:55:37.786Z,91.40
2022-12-19T05:58:07.097Z,89.00
2022-12-19T06:03:03.241Z,99.97
2022-12-19T06:05:31.464Z,85.80
2022-12-19T06:07:59.424Z,93.32
2022-12-19T06:10:27.447Z,112.80
2022-12-19T06:12:55.435Z,117.55
2022-12-19T06:15:24.798Z,110.53
2022-12-19T06:20:22.313Z,100.00
2022-12-19T06:22:50.263Z,100.97
2022-12-19T06:25:18.255Z,96.03
2022-12-19T06:27:46.239Z,89.68
2022-12-19T06:30:15.141Z,94.32
2022-12-19T06:32:44.570Z,97.05
2022-12-19T06:35:12.611Z,94.13
2022-12-19T06:37:40.596Z,84.20
2022-12-19T06:40:30.995Z,91.10
2022-12-19T06:42:57.995Z,91.47
2022-12-19T06:45:26.045Z,87.65
2022-12-19T06:47:57.461Z,92.50
2022-12-19T06:50:27.364Z,88.65
2022-12-19T06:52:55.316Z,91.57
2022-12-19T06:55:23.612Z,87.55
2022-12-19T06:57:51.538Z,84.97
2022-12-19T07:00:20.589Z,91.22
2022-12-19T07:02:52.883Z,98.45
2022-12-19T07:05:23.308Z,87.68
2022-12-19T07:07:51.328Z,88.55
2022-12-19T07:10:19.566Z,91.88
2022-12-19T07:12:47.643Z,90.93
2022-12-19T07:15:16.179Z,89.63
2022-12-19T07:17:44.464Z,99.82
2022-12-19T07:20:14.782Z,91.70
2022-12-19T07:22:45.679Z,85.30
2022-12-19T07:25:13.815Z,97.20
2022-12-19T07:27:42.208Z,87.30
2022-12-19T07:30:11.873Z,92.33
2022-12-19T07:32:40.300Z,82.10
2022-12-19T07:35:09.049Z,78.40
2022-12-19T07:37:37.172Z,81.93
2022-12-19T07:40:07.756Z,74.15
2022-12-19T07:42:35.741Z,65.50
2022-12-19T07:45:03.750Z,62.22
2022-12-19T07:47:31.695Z,70.82
2022-12-19T07:49:59.719Z,49.90
2022-12-19T07:52:27.703Z,46.97
2022-12-19T07:54:55.670Z,43.60
2022-12-19T07:57:25.011Z,46.40
2022-12-19T08:02:21.016Z,43.95
2022-12-19T08:04:48.970Z,44.05
2022-12-19T08:07:16.910Z,42.03
2022-12-19T08:09:45.123Z,41.55
2022-12-19T08:12:13.072Z,40.38
2022-12-19T08:14:42.550Z,41.15
2022-12-19T08:17:20.268Z,35.47
2022-12-19T08:19:49.115Z,35.00
2022-12-19T08:22:17.077Z,39.10
2022-12-19T08:24:44.996Z,40.08
2022-12-19T08:27:13.044Z,41.38
2022-12-19T08:29:42.413Z,45.00
2022-12-19T08:32:13.379Z,42.42
2022-12-19T08:34:45.288Z,35.55
2022-12-19T08:37:13.471Z,39.80
2022-12-19T08:39:41.594Z,39.57
2022-12-19T08:42:09.851Z,35.83
2022-12-19T08:44:37.833Z,34.13
2022-12-19T08:47:07.264Z,38.97
2022-12-19T08:49:35.281Z,34.10
2022-12-19T08:52:03.464Z,33.53
2022-12-19T08:54:31.461Z,33.42
2022-12-19T08:56:59.749Z,36.72
2022-12-19T08:59:30.758Z,31.77
2022-12-19T09:01:59.819Z,34.55
2022-12-19T09:05:49.722Z,34.22
2022-12-19T09:07:17.940Z,36.05
2022-12-19T09:09:46.484Z,34.95
2022-12-19T09:12:16.250Z,37.28
2022-12-19T09:14:45.143Z,30.27
2022-12-19T09:17:13.288Z,31.50
2022-12-19T09:19:45.131Z,31.27
2022-12-19T09:22:16.845Z,30.85
2022-12-19T09:24:44.851Z,30.70
2022-12-19T09:27:14.178Z,33.15
2022-12-19T09:29:43.079Z,30.48
2022-12-19T09:32:11.009Z,30.73
2022-12-19T09:34:39.886Z,33.22
2022-12-19T09:37:16.054Z,31.90
2022-12-19T09:39:46.818Z,29.02
2022-12-19T09:42:59.733Z,30.52
2022-12-19T09:45:40.407Z,31.90
2022-12-19T09:48:14.165Z,32.63
2022-12-19T09:51:09.493Z,34.47
2022-12-19T09:53:58.926Z,34.33
2022-12-19T09:56:33.102Z,31.08
2022-12-19T09:59:15.362Z,34.20
2022-12-19T10:01:55.124Z,30.65
2022-12-19T10:04:26.891Z,32.58
2022-12-19T10:07:11.504Z,34.45
2022-12-19T10:11:52.485Z,31.88
2022-12-19T10:12:51.227Z,30.20
2022-12-19T10:15:30.559Z,30.43
2022-12-19T10:18:15.500Z,32.83
2022-12-19T10:20:50.439Z,32.20
2022-12-19T10:23:45.512Z,26.20
2022-12-19T10:26:19.527Z,32.17
2022-12-19T10:29:01.779Z,24.95
2022-12-19T10:31:35.895Z,26.33
2022-12-19T10:34:18.577Z,25.85
2022-12-19T10:39:51.135Z,29.40
2022-12-19T10:42:31.373Z,29.55
2022-12-19T10:45:04.083Z,30.73
2022-12-19T10:47:32.594Z,29.23
2022-12-19T10:50:05.633Z,28.88
2022-12-19T10:52:55.101Z,37.25
2022-12-19T10:55:31.530Z,33.47
2022-12-19T10:58:02.549Z,29.83
2022-12-19T11:00:32.998Z,34.97
2022-12-19T11:03:16.801Z,33.42
2022-12-19T11:05:57.476Z,30.92
2022-12-19T11:08:27.874Z,33.55
2022-12-19T11:14:34.165Z,30.30
2022-12-19T11:17:45.688Z,31.83
2022-12-19T11:20:52.920Z,33.17
2022-12-19T11:29:38.651Z,33.60
2022-12-19T11:29:40.715Z,35.42
2022-12-19T11:30:38.643Z,30.90
2022-12-19T11:34:03.507Z,32.70
2022-12-19T11:36:37.757Z,31.50
2022-12-19T11:39:09.870Z,32.92
2022-12-19T11:41:42.153Z,30.48
2022-12-19T11:44:20.621Z,34.40
2022-12-19T11:46:59.058Z,32.22
2022-12-19T11:49:33.919Z,29.17
2022-12-19T11:52:36.882Z,27.52
2022-12-19T11:55:04.541Z,34.45
2022-12-19T11:57:33.208Z,30.40
2022-12-19T12:00:05.092Z,30.88
2022-12-19T12:03:11.770Z,29.40
2022-12-19T12:05:45.036Z,31.08
2022-12-19T12:09:53.724Z,29.83
2022-12-19T12:20:05.266Z,31.63
2022-12-19T12:22:49.079Z,31.10
2022-12-19T12:31:05.338Z,32.20
2022-12-19T12:31:11.599Z,31.17
2022-12-19T12:31:21.386Z,30.23
2022-12-19T12:31:57.752Z,33.78
2022-12-19T12:32:03.194Z,29.80
2022-12-19T12:35:38.324Z,33.65
2022-12-19T12:38:36.026Z,35.03
2022-12-19T12:41:20.833Z,37.75
2022-12-19T12:44:06.119Z,36.63
2022-12-19T12:46:40.297Z,36.10
2022-12-19T12:49:33.422Z,34.42
2022-12-19T12:52:04.179Z,34.45
2022-12-19T12:54:35.888Z,34.25
2022-12-19T12:57:05.621Z,33.50
2022-12-19T12:59:33.564Z,30.50
2022-12-19T13:02:08.495Z,31.13
2022-12-19T13:04:44.507Z,33.28
2022-12-19T13:07:30.374Z,31.60
2022-12-19T13:10:24.634Z,28.13
2022-12-19T13:13:02.831Z,30.02
2022-12-19T13:15:37.291Z,30.03
2022-12-19T13:18:32.992Z,26.88
2022-12-19T13:21:03.261Z,31.73
2022-12-19T13:23:45.010Z,32.83
2022-12-19T13:26:44.753Z,30.35
2022-12-19T13:29:57.362Z,29.17
2022-12-19T13:32:25.291Z,25.73
2022-12-19T13:35:15.738Z,30.90
2022-12-19T13:39:49.684Z,30.75
2022-12-19T13:40:56.076Z,28.45
2022-12-19T13:43:45.628Z,30.80
2022-12-19T13:46:26.601Z,32.35
2022-12-19T13:48:58.769Z,28.88
2022-12-19T13:51:26.823Z,28.77
2022-12-19T13:53:59.597Z,30.40
2022-12-19T13:56:32.050Z,33.05
2022-12-19T13:59:03.837Z,30.70
2022-12-19T14:01:36.613Z,31.38
2022-12-19T14:04:08.012Z,30.05
2022-12-19T14:06:42.204Z,30.60
2022-12-19T14:11:31.418Z,32.72
2022-12-19T14:13:40.195Z,35.83
2022-12-19T14:15:32.507Z,35.20
2022-12-19T14:18:41.890Z,34.80
2022-12-19T14:22:05.735Z,35.47
2022-12-19T14:23:43.318Z,34.30
2022-12-19T14:28:21.001Z,34.33
2022-12-19T14:29:13.598Z,31.77
2022-12-19T14:32:33.209Z,34.97
2022-12-19T14:35:46.522Z,35.25
2022-12-19T14:38:13.122Z,38.83
2022-12-19T14:40:25.412Z,36.05
2022-12-19T14:43:59.244Z,36.72
2022-12-19T14:52:34.135Z,36.65
2022-12-19T14:54:13.812Z,36.80
2022-12-19T14:54:24.627Z,36.00
2022-12-19T14:56:16.764Z,38.10
2022-12-19T14:58:52.606Z,39.88
2022-12-19T15:01:24.389Z,39.50
2022-12-19T15:04:49.092Z,39.80
2022-12-19T15:07:08.330Z,37.45
2022-12-19T15:11:02.896Z,41.88
2022-12-19T15:14:51.670Z,40.80
2022-12-19T15:15:45.948Z,43.58
2022-12-19T15:18:21.424Z,42.35
2022-12-19T15:20:49.618Z,42.10
2022-12-19T15:23:22.004Z,39.88
2022-12-19T15:26:08.753Z,41.70
2022-12-19T15:28:42.685Z,40.95
2022-12-19T15:31:25.157Z,39.42
2022-12-19T15:34:23.775Z,39.80
2022-12-19T15:36:41.112Z,46.22
2022-12-19T15:39:09.100Z,42.30
2022-12-19T15:41:38.498Z,39.00
2022-12-19T15:46:39.877Z,37.63
2022-12-19T15:49:15.499Z,40.42
2022-12-19T15:51:43.762Z,36.53
2022-12-19T15:57:01.261Z,37.83
2022-12-19T16:02:17.697Z,34.65
2022-12-19T16:04:48.087Z,38.28
2022-12-19T16:07:21.657Z,37.88
2022-12-19T16:09:50.265Z,35.50
2022-12-19T16:12:21.958Z,40.53
2022-12-19T16:14:54.840Z,37.10
2022-12-19T16:17:25.550Z,36.97
2022-12-19T16:19:53.911Z,38.20
2022-12-19T16:22:24.206Z,37.77
2022-12-19T16:24:53.371Z,38.83
2022-12-19T16:27:25.920Z,35.55
2022-12-19T16:29:55.381Z,34.75
2022-12-19T16:32:24.620Z,39.22
2022-12-19T16:37:21.010Z,34.15
2022-12-19T16:39:49.032Z,35.38
2022-12-19T16:42:18.705Z,33.70
2022-12-19T16:44:49.370Z,32.17
2022-12-19T16:47:19.094Z,32.97
2022-12-19T16:49:47.089Z,31.95
2022-12-19T16:52:15.402Z,31.17
2022-12-19T16:54:43.782Z,33.87
2022-12-19T16:57:20.258Z,36.63
2022-12-19T16:59:51.011Z,36.50
2022-12-19T17:02:39.055Z,36.10
2022-12-19T17:05:08.258Z,34.87
2022-12-19T17:07:36.644Z,36.00
2022-12-19T17:10:04.948Z,34.72
2022-12-19T17:12:33.009Z,40.20
2022-12-19T17:15:03.657Z,40.42
2022-12-19T17:17:31.631Z,45.08
2022-12-19T17:19:59.598Z,36.05
2022-12-19T17:22:27.615Z,41.92
2022-12-19T17:24:55.625Z,33.95
2022-12-19T17:27:23.615Z,31.85
2022-12-19T17:29:51.493Z,41.22
2022-12-19T17:32:24.312Z,28.77
2022-12-19T17:34:53.582Z,29.60
2022-12-19T17:37:22.043Z,29.73
2022-12-19T17:39:49.982Z,31.20
2022-12-19T17:42:25.150Z,27.40
2022-12-19T17:44:53.227Z,27.70
2022-12-19T17:47:22.623Z,30.60
2022-12-19T17:49:50.994Z,28.48
2022-12-19T17:52:20.711Z,29.27
2022-12-19T17:54:48.884Z,28.17
2022-12-19T17:57:18.447Z,28.63
2022-12-19T17:59:47.246Z,29.95
2022-12-19T18:02:21.923Z,25.35
2022-12-19T18:04:51.914Z,26.70
2022-12-19T18:07:20.393Z,24.33
2022-12-19T18:09:49.635Z,25.55
2022-12-19T18:14:45.358Z,27.35
2022-12-19T18:17:14.851Z,25.85
2022-12-19T18:19:42.973Z,28.63
2022-12-19T18:22:14.873Z,27.48
2022-12-19T18:24:43.144Z,25.98
2022-12-19T18:27:11.126Z,26.13
2022-12-19T18:29:39.107Z,27.55
2022-12-19T18:32:07.912Z,26.85
2022-12-19T18:34:36.538Z,28.95
2022-12-19T18:37:05.503Z,27.02
2022-12-19T18:39:34.972Z,28.25
2022-12-19T18:44:30.660Z,28.55
2022-12-19T18:46:59.193Z,27.55
2022-12-19T18:49:29.182Z,27.58
2022-12-19T18:51:57.287Z,28.85
2022-12-19T18:54:25.312Z,30.02
2022-12-19T18:56:54.626Z,27.75
2022-12-19T19:01:50.728Z,28.13
2022-12-19T19:04:18.884Z,27.70
2022-12-19T19:06:52.072Z,27.90
2022-12-19T19:09:21.838Z,28.48
2022-12-19T19:11:49.971Z,28.88
2022-12-19T19:14:19.242Z,30.25
2022-12-19T19:19:18.472Z,25.52
2022-12-19T19:21:46.526Z,26.98
2022-12-19T19:24:17.644Z,26.20
2022-12-19T19:26:45.692Z,27.00
2022-12-19T19:29:14.910Z,28.00
2022-12-19T19:34:19.559Z,26.88
2022-12-19T19:36:50.703Z,30.45
2022-12-19T19:39:19.933Z,27.13
2022-12-19T19:44:15.631Z,28.08
2022-12-19T19:46:45.076Z,25.67
2022-12-19T19:49:13.161Z,28.90
2022-12-19T19:51:41.188Z,25.02
2022-12-19T19:54:09.255Z,26.33
2022-12-19T19:56:37.291Z,29.45
2022-12-19T19:59:05.573Z,30.00
2022-12-19T20:01:33.636Z,32.80
2022-12-19T20:04:04.148Z,27.75
2022-12-19T20:06:32.647Z,26.83
2022-12-19T20:09:00.578Z,26.23
2022-12-19T20:11:28.528Z,27.50
2022-12-19T20:13:56.650Z,29.80
2022-12-19T20:16:24.946Z,27.58
2022-12-19T20:18:53.897Z,28.50
2022-12-19T20:21:24.582Z,30.58
2022-12-19T20:23:52.572Z,30.50
2022-12-19T20:26:20.775Z,32.40
2022-12-19T20:28:51.285Z,28.52
2022-12-19T20:31:19.969Z,29.30
2022-12-19T20:33:48.467Z,29.60
2022-12-19T20:36:17.210Z,30.17
2022-12-19T20:38:47.182Z,28.80
2022-12-19T20:41:15.327Z,26.30
2022-12-19T20:43:43.482Z,29.05
2022-12-19T20:46:14.023Z,32.10
2022-12-19T20:48:42.621Z,29.90
2022-12-19T20:51:11.212Z,25.88
2022-12-19T20:53:41.635Z,29.13
2022-12-19T20:56:14.021Z,24.42
2022-12-19T20:58:42.046Z,26.02
2022-12-19T21:01:12.408Z,30.27
2022-12-19T21:03:41.412Z,25.17
2022-12-19T21:06:11.266Z,26.42
2022-12-19T21:08:39.746Z,23.50
2022-12-19T21:11:10.710Z,24.27
2022-12-19T21:13:39.718Z,21.25
2022-12-19T21:16:10.399Z,27.73
2022-12-19T21:18:39.540Z,28.02
2022-12-19T21:21:10.102Z,24.48
2022-12-19T21:23:38.146Z,25.92
2022-12-19T21:26:06.633Z,25.98
2022-12-19T21:28:37.785Z,24.10
2022-12-19T21:31:08.250Z,26.23
2022-12-19T21:33:36.416Z,23.90
2022-12-19T21:36:09.058Z,25.48
2022-12-19T21:38:37.157Z,28.42
2022-12-19T21:41:06.737Z,25.40
2022-12-19T21:43:37.366Z,26.20
2022-12-19T21:46:09.911Z,28.27
2022-12-19T21:48:39.445Z,28.23
2022-12-19T21:51:08.506Z,27.85
2022-12-19T21:53:37.602Z,27.00
2022-12-19T21:56:08.044Z,26.10
2022-12-19T21:58:37.400Z,25.35
2022-12-19T22:03:37.345Z,23.48
2022-12-19T22:06:06.248Z,28.15
2022-12-19T22:08:34.411Z,23.98
2022-12-19T22:11:03.129Z,26.83
2022-12-19T22:13:31.422Z,28.52
2022-12-19T22:16:04.364Z,28.80
2022-12-19T22:18:35.053Z,29.02
2022-12-19T22:21:03.678Z,27.70
2022-12-19T22:23:32.303Z,27.10
2022-12-19T22:26:05.592Z,25.02
2022-12-19T22:28:35.247Z,26.42
2022-12-19T22:31:05.635Z,27.73
2022-12-19T22:33:33.643Z,25.88
2022-12-19T22:36:06.499Z,24.92
2022-12-19T22:38:34.518Z,25.98
2022-12-19T22:41:04.365Z,27.40
2022-12-19T22:43:32.481Z,28.25
2022-12-19T22:46:00.511Z,25.80
2022-12-19T22:48:29.863Z,28.20
2022-12-19T22:53:25.946Z,26.02
2022-12-19T22:55:53.938Z,29.88
2022-12-19T22:58:21.947Z,27.60
2022-12-19T23:00:50.657Z,26.08
2022-12-19T23:03:18.765Z,25.17
2022-12-19T23:05:51.859Z,26.48
2022-12-19T23:08:20.354Z,27.10
2022-12-19T23:10:51.101Z,27.65
2022-12-19T23:13:19.377Z,27.50
2022-12-19T23:15:47.372Z,27.73
2022-12-19T23:18:15.517Z,26.38
2022-12-19T23:20:43.656Z,27.85
2022-12-19T23:23:13.214Z,27.65
2022-12-19T23:25:42.838Z,22.42
2022-12-19T23:28:11.041Z,26.27
2022-12-19T23:30:38.986Z,24.52
2022-12-19T23:33:07.026Z,26.75
2022-12-19T23:35:35.069Z,24.00
2022-12-19T23:38:03.005Z,26.25
2022-12-19T23:40:32.431Z,24.17
2022-12-19T23:43:00.628Z,26.42
2022-12-19T23:45:28.855Z,27.60
2022-12-19T23:47:56.782Z,25.23
2022-12-19T23:50:25.179Z,25.55
2022-12-19T23:52:53.173Z,24.33
2022-12-19T23:55:21.139Z,27.33
2022-12-19T23:57:50.538Z,29.73
